1999 D19899:HSK2299 (1999043S18038)


On this page: IBTrACS data - Map and Plots - Positions - Intensities - Original source data

Summary

Start Feb 11
End Feb 17
Basin SI
LMI 45 kt
Sources jtwc_sh
reunion
neumann
In WMO? Yes
Previous storm 1999 RONA (SP)
Previous in basin 1999 HSK1999 (SI)
Concurrent storms 1999 HSK1999 (SI)
1999 ELLA (SP)
1999 RONA (SP)
1999 D19899 (SI)
1999 IRIS (WP)
1999 FRANK (SP)
Next in basin 1999 HSK2499 (SI)
Next storm 1999 IRIS (WP)

top of page IBTrACS Data: File Access

top of page HURSAT Data: File Access

Image of storm

top of page Plots:

Map of storm track will not appear if FTP is down
Time series of cyclone Maximum Sustained Wind will not appear if FTP is down
Time series of cyclone Minimum Central Pressure will not appear if FTP is down

top of page Track Data:Position

jtwc_sh reunion neumann
Date Lat Lon Lat Lon Lat Lon
1999-02-11 12:00:00 -18.4 38.4
1999-02-11 18:00:00 -18.5 39.4 -18.5 39.4
1999-02-12 00:00:00 -18.5 39.5 -18.5 39.5
1999-02-12 06:00:00 -18.7 39.7 -18.7 39.7
1999-02-12 12:00:00 -19.4 37.6 -19.4 39.5 -19.4 39.5
1999-02-12 18:00:00 -19.8 38.0 -20.3 38.8 -20.3 38.8
1999-02-13 00:00:00 -20.8 38.3 -21.0 38.3 -21.0 38.3
1999-02-13 06:00:00 -21.7 37.9 -21.6 38.0 -21.6 38.0
1999-02-13 12:00:00 -22.3 37.7 -22.1 37.9 -22.1 37.9
1999-02-13 18:00:00 -23.2 37.8 -22.5 38.1 -22.5 38.1
1999-02-14 00:00:00 -23.4 38.4 -22.7 38.7 -22.7 38.7
1999-02-14 06:00:00 -23.1 39.1 -22.8 39.2 -22.8 39.2
1999-02-14 12:00:00 -22.8 39.6 -22.6 40.1 -22.6 40.1
1999-02-14 18:00:00 -22.0 40.2 -21.8 40.8 -21.8 40.8
1999-02-15 00:00:00 -20.8 40.5 -20.5 41.0 -20.5 41.0
1999-02-15 06:00:00 -19.8 40.7 -19.8 40.7 -19.8 40.7
1999-02-15 12:00:00 -19.3 40.4 -19.3 40.3 -19.3 40.3
1999-02-15 18:00:00 -18.7 39.9 -18.7 40.1 -18.7 40.1
1999-02-16 00:00:00 -18.6 39.6 -18.2 39.4 -18.2 39.4
1999-02-16 06:00:00 -18.5 39.2 -18.3 39.1 -18.3 39.1
1999-02-16 12:00:00 -18.5 38.9 -18.6 38.6 -18.6 38.6
1999-02-16 18:00:00 -18.5 38.5 -18.9 38.0 -18.9 38.0
1999-02-17 00:00:00 -19.2 37.5 -19.2 37.5

top of pageTrack Data:Intensity

jtwc_sh reunion neumann
Date Wind Pres Wind Pres Wind Pres
1999-02-11 12:00:00 20.
1999-02-11 18:00:00 23. 1002. 25. 1002.
1999-02-12 00:00:00 20. 1004. 20. 1004.
1999-02-12 06:00:00 20. 1005. 20. 1005.
1999-02-12 12:00:00 20. 20. 1003. 25. 1003.
1999-02-12 18:00:00 25. 25. 1000. 30. 1000.
1999-02-13 00:00:00 30. 25. 1000. 30. 1000.
1999-02-13 06:00:00 30. 28. 998. 35. 998.
1999-02-13 12:00:00 35. 30. 996. 35. 996.
1999-02-13 18:00:00 40. 32. 995. 40. 995.
1999-02-14 00:00:00 40. 33. 994. 40. 994.
1999-02-14 06:00:00 45. 33. 994. 40. 994.
1999-02-14 12:00:00 40. 33. 994. 40. 994.
1999-02-14 18:00:00 35. 32. 995. 40. 995.
1999-02-15 00:00:00 35. 30. 996. 35. 996.
1999-02-15 06:00:00 30. 28. 998. 35. 998.
1999-02-15 12:00:00 30. 25. 1000. 30. 1000.
1999-02-15 18:00:00 30. 25. 1000. 30. 1000.
1999-02-16 00:00:00 30. 20. 1002. 25. 1002.
1999-02-16 06:00:00 25. 20. 1004. 20. 1004.
1999-02-16 12:00:00 25. 20. 1005. 20. 1005.
1999-02-16 18:00:00 25. 20. 1005. 20. 1005.
1999-02-17 00:00:00 15. 1006. 15. 1006.

top of page Links to source data

Source Source file Format
jtwc_sh bsh211999.txt ATCF
reunion WMO-Best-Tracks.txt:Line=18470:d19899 WMO (old format)
neumann tracks.sh:Storm=1161:HSK2299:BSH211999:Reunion HURDAT